Time;durP1;ratioP1;P1;durP2;ratioP2;P2;SDS_P1;SDS_P2;PMS_P1;PMS_P2;Temp;Humidity;BMP_temperature;BMP_pressure;BME280_temperature;BME280_humidity;BME280_pressure;Samples;Min_cycle;Max_cycle;Signal;HPM_P1;HPM_P2
2023/07/04 00:00:13;;;;;;;32.50;9.85;;;;;;;;;;5089434;28;20039;-72
2023/07/04 00:02:42;;;;;;;35.97;8.43;;;;;;;;;;5089930;28;20034;-71
2023/07/04 00:05:08;;;;;;;36.58;9.77;;;;;;;;;;5082285;28;20034;-71
2023/07/04 00:07:35;;;;;;;42.53;9.70;;;;;;;;;;5071558;28;20028;-72
2023/07/04 00:10:03;;;;;;;37.40;10.18;;;;;;;;;;5083068;28;20040;-72
2023/07/04 00:12:31;;;;;;;36.90;8.70;;;;;;;;;;5087092;28;20032;-72
2023/07/04 00:14:57;;;;;;;30.63;8.75;;;;;;;;;;5085820;28;20103;-72
2023/07/04 00:17:23;;;;;;;31.80;8.48;;;;;;;;;;5068504;28;20043;-71
2023/07/04 00:19:52;;;;;;;30.30;9.52;;;;;;;;;;5073721;28;20699;-72
2023/07/04 00:22:20;;;;;;;41.65;9.95;;;;;;;;;;5077296;28;20106;-72
2023/07/04 00:24:46;;;;;;;45.55;10.02;;;;;;;;;;5078929;28;20047;-73
2023/07/04 00:27:12;;;;;;;28.48;9.95;;;;;;;;;;5087278;28;20024;-73
2023/07/04 00:29:40;;;;;;;40.65;10.82;;;;;;;;;;5071191;28;20085;-70
2023/07/04 00:32:07;;;;;;;34.08;9.48;;;;;;;;;;5086427;28;20046;-70
2023/07/04 00:34:34;;;;;;;40.97;10.07;;;;;;;;;;5079710;28;20389;-71
2023/07/04 00:37:01;;;;;;;28.38;8.93;;;;;;;;;;5066918;28;20127;-71
2023/07/04 00:39:28;;;;;;;36.97;10.13;;;;;;;;;;5085259;28;20032;-72
2023/07/04 00:41:55;;;;;;;30.95;9.25;;;;;;;;;;5088520;28;20492;-71
2023/07/04 00:44:24;;;;;;;32.95;8.63;;;;;;;;;;5056105;28;20027;-72
2023/07/04 00:47:32;;;;;;;27.05;8.93;;;;;;;;;;5072504;28;20048;-72
2023/07/04 00:49:57;;;;;;;32.00;8.75;;;;;;;;;;5067918;28;20164;-73
2023/07/04 00:52:25;;;;;;;27.27;6.82;;;;;;;;;;5071800;28;20038;-72
2023/07/04 00:54:54;;;;;;;19.65;5.28;;;;;;;;;;5080200;28;20024;-72
2023/07/04 00:57:22;;;;;;;20.00;4.80;;;;;;;;;;5070515;28;20020;-72
2023/07/04 00:59:52;;;;;;;12.55;4.15;;;;;;;;;;5085465;28;20032;-73
2023/07/04 01:02:22;;;;;;;15.02;4.07;;;;;;;;;;5088530;28;20394;-72
2023/07/04 01:04:50;;;;;;;16.38;4.68;;;;;;;;;;5084794;28;20450;-72
2023/07/04 01:07:16;;;;;;;12.13;4.20;;;;;;;;;;5086356;28;20579;-71
2023/07/04 01:09:46;;;;;;;14.77;5.15;;;;;;;;;;5067072;28;20032;-71
2023/07/04 01:12:13;;;;;;;15.60;4.32;;;;;;;;;;5083779;28;20089;-72
2023/07/04 01:14:41;;;;;;;19.25;6.20;;;;;;;;;;5064125;28;20069;-71
2023/07/04 01:17:08;;;;;;;16.77;4.95;;;;;;;;;;5084136;28;20493;-73
2023/07/04 01:19:38;;;;;;;16.55;5.07;;;;;;;;;;5081244;28;20157;-72
2023/07/04 01:22:14;;;;;;;19.90;6.85;;;;;;;;;;5084362;28;20042;-72
2023/07/04 01:24:48;;;;;;;21.17;5.25;;;;;;;;;;5066445;28;20028;-73
2023/07/04 01:27:16;;;;;;;16.90;4.88;;;;;;;;;;5082938;28;20020;-72
2023/07/04 01:29:43;;;;;;;15.60;5.05;;;;;;;;;;5067729;28;20039;-71
2023/07/04 01:32:10;;;;;;;17.30;4.93;;;;;;;;;;5068515;28;20039;-71
2023/07/04 01:34:37;;;;;;;16.83;5.35;;;;;;;;;;5067973;28;20474;-72
2023/07/04 01:37:05;;;;;;;19.80;4.47;;;;;;;;;;5081962;28;20024;-72
2023/07/04 01:39:31;;;;;;;17.25;4.68;;;;;;;;;;5088459;28;20525;-73
2023/07/04 01:41:57;;;;;;;16.58;4.78;;;;;;;;;;5068621;28;20028;-71
2023/07/04 01:44:25;;;;;;;14.75;4.68;;;;;;;;;;5087380;28;20028;-72
2023/07/04 01:46:51;;;;;;;18.48;4.90;;;;;;;;;;5064657;28;20032;-72
2023/07/04 01:49:19;;;;;;;20.52;5.43;;;;;;;;;;5085418;28;20070;-72
2023/07/04 01:51:46;;;;;;;20.00;6.45;;;;;;;;;;5088102;28;20047;-72
2023/07/04 01:54:17;;;;;;;14.98;5.00;;;;;;;;;;5085222;28;20028;-71
2023/07/04 01:56:46;;;;;;;14.13;4.95;;;;;;;;;;5083047;28;20025;-72
2023/07/04 01:59:12;;;;;;;19.25;5.38;;;;;;;;;;5083566;28;20072;-72
2023/07/04 02:01:40;;;;;;;23.08;5.15;;;;;;;;;;5085269;28;20564;-72
2023/07/04 02:04:06;;;;;;;22.08;5.88;;;;;;;;;;5067766;28;20073;-71
2023/07/04 02:06:32;;;;;;;16.80;5.50;;;;;;;;;;5053849;28;20024;-72
2023/07/04 02:08:58;;;;;;;15.63;5.72;;;;;;;;;;5084773;28;20028;-72
2023/07/04 02:11:24;;;;;;;17.35;5.32;;;;;;;;;;5066903;28;20035;-71
2023/07/04 02:13:51;;;;;;;20.38;6.07;;;;;;;;;;5071834;28;20024;-72
2023/07/04 02:16:17;;;;;;;16.52;5.93;;;;;;;;;;5047877;28;20038;-71
2023/07/04 02:18:43;;;;;;;13.10;4.47;;;;;;;;;;5082234;28;20064;-72
2023/07/04 02:21:09;;;;;;;10.80;5.15;;;;;;;;;;5064512;28;20048;-72
2023/07/04 02:23:36;;;;;;;16.17;5.15;;;;;;;;;;5064038;28;20051;-72
2023/07/04 02:26:02;;;;;;;15.05;5.45;;;;;;;;;;5082511;28;20115;-72
2023/07/04 02:28:28;;;;;;;19.60;4.90;;;;;;;;;;5047057;28;20058;-72
2023/07/04 02:30:58;;;;;;;11.27;5.00;;;;;;;;;;5048569;28;20028;-72
2023/07/04 02:33:26;;;;;;;15.13;5.13;;;;;;;;;;5087306;28;20485;-72
2023/07/04 02:35:53;;;;;;;20.65;5.07;;;;;;;;;;5044588;28;20038;-72
2023/07/04 02:38:20;;;;;;;18.20;4.75;;;;;;;;;;5062804;28;20146;-72
2023/07/04 02:40:47;;;;;;;12.43;4.88;;;;;;;;;;5087809;28;20028;-72
2023/07/04 02:43:16;;;;;;;26.58;6.30;;;;;;;;;;5054889;28;20119;-73
2023/07/04 02:45:43;;;;;;;14.18;4.72;;;;;;;;;;5070147;28;20032;-72
2023/07/04 02:48:11;;;;;;;24.10;6.05;;;;;;;;;;5050650;28;20061;-72
2023/07/04 02:50:38;;;;;;;8.88;4.90;;;;;;;;;;5069233;28;20028;-72
2023/07/04 02:53:04;;;;;;;13.82;5.05;;;;;;;;;;5083017;28;20031;-73
2023/07/04 02:55:30;;;;;;;21.45;4.97;;;;;;;;;;5070769;28;20119;-72
2023/07/04 02:57:57;;;;;;;16.60;4.80;;;;;;;;;;5085673;28;20064;-72
2023/07/04 03:00:23;;;;;;;13.80;5.00;;;;;;;;;;5079576;28;20032;-72
2023/07/04 03:02:50;;;;;;;23.27;5.82;;;;;;;;;;5080551;28;20063;-72
2023/07/04 03:05:17;;;;;;;13.82;5.43;;;;;;;;;;5083389;28;20036;-72
2023/07/04 03:07:43;;;;;;;15.73;6.03;;;;;;;;;;5084821;28;20062;-72
2023/07/04 03:10:14;;;;;;;14.98;5.13;;;;;;;;;;5088102;28;20077;-72
2023/07/04 03:12:40;;;;;;;17.83;5.28;;;;;;;;;;5050533;28;20074;-72
2023/07/04 03:15:07;;;;;;;27.52;7.10;;;;;;;;;;5070132;28;20038;-72
2023/07/04 03:17:37;;;;;;;16.92;5.57;;;;;;;;;;5047622;28;20020;-71
2023/07/04 03:20:08;;;;;;;19.40;5.55;;;;;;;;;;5067793;28;20032;-72
2023/07/04 03:22:34;;;;;;;18.98;5.53;;;;;;;;;;5084779;28;20077;-73
2023/07/04 03:25:02;;;;;;;16.55;5.53;;;;;;;;;;5065696;28;20492;-71
2023/07/04 03:27:28;;;;;;;20.35;5.30;;;;;;;;;;5064539;28;20012;-72
2023/07/04 03:29:55;;;;;;;14.45;5.40;;;;;;;;;;5064752;28;20028;-72
2023/07/04 03:32:21;;;;;;;19.63;5.88;;;;;;;;;;5067818;28;20031;-72
2023/07/04 03:34:48;;;;;;;18.75;5.38;;;;;;;;;;5084973;28;20122;-72
2023/07/04 03:37:14;;;;;;;19.80;5.88;;;;;;;;;;5080992;28;20481;-71
2023/07/04 03:39:41;;;;;;;19.63;5.55;;;;;;;;;;5048927;28;20039;-71
2023/07/04 03:42:07;;;;;;;18.50;5.47;;;;;;;;;;5083003;28;20032;-72
2023/07/04 03:44:34;;;;;;;22.85;5.80;;;;;;;;;;5084294;28;20051;-72
2023/07/04 03:47:00;;;;;;;17.95;5.57;;;;;;;;;;5088445;28;20134;-71
2023/07/04 03:49:26;;;;;;;15.18;5.45;;;;;;;;;;5042330;28;20029;-72
2023/07/04 03:51:52;;;;;;;13.05;4.88;;;;;;;;;;5052907;28;20477;-72
2023/07/04 03:54:18;;;;;;;14.25;5.80;;;;;;;;;;5054100;28;20034;-73
2023/07/04 03:56:46;;;;;;;18.73;5.55;;;;;;;;;;5081536;28;20031;-72
2023/07/04 03:59:12;;;;;;;14.48;5.25;;;;;;;;;;5070864;28;20455;-72
2023/07/04 04:01:38;;;;;;;22.00;6.18;;;;;;;;;;5032298;28;20033;-72
2023/07/04 04:04:04;;;;;;;22.30;5.75;;;;;;;;;;5076451;28;20028;-72
2023/07/04 04:06:30;;;;;;;16.67;6.32;;;;;;;;;;5083691;28;20016;-73
2023/07/04 04:08:57;;;;;;;13.73;5.32;;;;;;;;;;5041717;28;20038;-72
2023/07/04 04:11:23;;;;;;;14.00;5.78;;;;;;;;;;5067678;28;20040;-72
2023/07/04 04:13:49;;;;;;;18.90;5.97;;;;;;;;;;5065870;28;20532;-72
2023/07/04 04:16:15;;;;;;;19.33;6.82;;;;;;;;;;5085077;28;20089;-72
2023/07/04 04:18:41;;;;;;;15.70;5.90;;;;;;;;;;5078254;28;20059;-72
2023/07/04 04:21:07;;;;;;;15.60;6.47;;;;;;;;;;5078825;28;20090;-72
2023/07/04 04:23:33;;;;;;;20.52;6.10;;;;;;;;;;5082962;28;20043;-73
2023/07/04 04:26:00;;;;;;;19.80;6.45;;;;;;;;;;5092767;28;20123;-72
2023/07/04 04:28:26;;;;;;;18.05;5.68;;;;;;;;;;5088060;28;20024;-72
2023/07/04 04:30:52;;;;;;;21.98;6.55;;;;;;;;;;5067945;28;20024;-72
2023/07/04 04:33:19;;;;;;;13.98;5.97;;;;;;;;;;5081949;28;21709;-72
2023/07/04 04:35:46;;;;;;;21.08;6.07;;;;;;;;;;5083826;28;20036;-72
2023/07/04 04:38:12;;;;;;;15.48;6.03;;;;;;;;;;5082343;28;20481;-72
2023/07/04 04:40:39;;;;;;;13.10;5.68;;;;;;;;;;5075484;28;20028;-72
2023/07/04 04:43:05;;;;;;;19.67;5.90;;;;;;;;;;5081370;28;20036;-72
2023/07/04 04:45:31;;;;;;;19.92;5.25;;;;;;;;;;5073434;28;20036;-71
2023/07/04 04:48:01;;;;;;;17.73;5.25;;;;;;;;;;5083775;28;20031;-72
2023/07/04 04:50:32;;;;;;;13.75;5.03;;;;;;;;;;5085924;28;20193;-72
2023/07/04 04:52:58;;;;;;;23.70;4.75;;;;;;;;;;5087102;28;20544;-71
2023/07/04 04:55:25;;;;;;;17.33;4.72;;;;;;;;;;5080023;28;20065;-71
2023/07/04 04:57:52;;;;;;;24.52;4.57;;;;;;;;;;5087858;28;20028;-72
2023/07/04 05:00:19;;;;;;;14.32;4.13;;;;;;;;;;5086874;28;20096;-71
2023/07/04 05:02:45;;;;;;;13.88;3.63;;;;;;;;;;5082829;28;20028;-71
2023/07/04 05:05:15;;;;;;;16.30;4.05;;;;;;;;;;5091041;28;20137;-72
2023/07/04 05:07:41;;;;;;;37.80;5.55;;;;;;;;;;5074919;28;20035;-71
2023/07/04 05:10:07;;;;;;;13.43;3.85;;;;;;;;;;5065969;28;20047;-71
2023/07/04 05:12:34;;;;;;;24.83;4.95;;;;;;;;;;5078028;28;20033;-71
2023/07/04 05:15:00;;;;;;;20.95;5.80;;;;;;;;;;5061231;28;20489;-72
2023/07/04 05:17:26;;;;;;;14.77;3.33;;;;;;;;;;5074496;28;20032;-72
2023/07/04 05:19:53;;;;;;;18.73;3.70;;;;;;;;;;5074884;28;20043;-72
2023/07/04 05:22:19;;;;;;;13.73;3.15;;;;;;;;;;5071749;28;20028;-75
2023/07/04 05:24:45;;;;;;;11.80;3.67;;;;;;;;;;5053433;28;20052;-72
2023/07/04 05:27:12;;;;;;;13.45;3.35;;;;;;;;;;5054002;28;20040;-72
2023/07/04 05:29:38;;;;;;;12.15;3.03;;;;;;;;;;5077862;28;20477;-71
2023/07/04 05:32:04;;;;;;;14.38;3.60;;;;;;;;;;5086797;28;20518;-71
2023/07/04 05:34:31;;;;;;;14.27;2.92;;;;;;;;;;5067940;28;20111;-72
2023/07/04 05:36:57;;;;;;;13.52;3.63;;;;;;;;;;5073096;28;20063;-72
2023/07/04 05:39:23;;;;;;;11.10;3.10;;;;;;;;;;5077187;28;20020;-73
2023/07/04 05:41:49;;;;;;;7.22;2.22;;;;;;;;;;5070051;28;20020;-71
2023/07/04 05:44:17;;;;;;;10.98;2.95;;;;;;;;;;5080891;28;20032;-69
2023/07/04 05:46:43;;;;;;;12.13;3.22;;;;;;;;;;5065490;28;20370;-69
2023/07/04 05:49:09;;;;;;;20.98;3.65;;;;;;;;;;5081244;28;20028;-70
2023/07/04 05:51:35;;;;;;;11.85;2.72;;;;;;;;;;5073755;28;20028;-71
2023/07/04 05:54:01;;;;;;;12.32;2.72;;;;;;;;;;5069126;28;20035;-70
2023/07/04 05:56:29;;;;;;;24.75;3.08;;;;;;;;;;5073332;28;20033;-71
2023/07/04 05:58:57;;;;;;;13.93;2.60;;;;;;;;;;5075125;28;20133;-70
2023/07/04 06:01:34;;;;;;;11.38;2.70;;;;;;;;;;5073279;28;20657;-72
2023/07/04 06:04:00;;;;;;;14.40;3.05;;;;;;;;;;5079288;28;20396;-70
2023/07/04 06:06:28;;;;;;;15.43;3.13;;;;;;;;;;5080199;28;20511;-70
2023/07/04 06:08:55;;;;;;;13.02;3.33;;;;;;;;;;5063859;28;20084;-71
2023/07/04 06:11:22;;;;;;;17.58;3.67;;;;;;;;;;5072398;28;20118;-70
2023/07/04 06:13:49;;;;;;;15.95;3.22;;;;;;;;;;5071066;28;20024;-70
2023/07/04 06:16:15;;;;;;;14.98;3.30;;;;;;;;;;5063403;28;20021;-71
2023/07/04 06:18:41;;;;;;;15.25;2.45;;;;;;;;;;5078140;28;20028;-71
2023/07/04 06:21:12;;;;;;;14.23;2.60;;;;;;;;;;5083705;28;20042;-70
2023/07/04 06:23:39;;;;;;;11.93;2.75;;;;;;;;;;5076395;28;20043;-71
2023/07/04 06:26:06;;;;;;;13.52;3.53;;;;;;;;;;5072076;28;20038;-71
2023/07/04 06:28:33;;;;;;;11.55;2.75;;;;;;;;;;5069661;28;20039;-70
2023/07/04 06:31:00;;;;;;;19.40;3.40;;;;;;;;;;5068556;28;20028;-72
2023/07/04 06:33:26;;;;;;;10.15;2.70;;;;;;;;;;5077840;28;20025;-70
2023/07/04 06:35:52;;;;;;;14.75;2.72;;;;;;;;;;5064767;28;20342;-70
2023/07/04 06:38:18;;;;;;;15.43;3.78;;;;;;;;;;5071909;28;20078;-70
2023/07/04 06:40:54;;;;;;;17.58;3.53;;;;;;;;;;5066371;28;20116;-71
2023/07/04 06:43:20;;;;;;;13.60;3.35;;;;;;;;;;5078348;28;20052;-71
2023/07/04 06:45:46;;;;;;;14.50;2.80;;;;;;;;;;5082415;28;20035;-71
2023/07/04 06:48:12;;;;;;;12.48;2.80;;;;;;;;;;5063686;28;20034;-71
2023/07/04 06:50:38;;;;;;;20.30;3.33;;;;;;;;;;5063739;28;20055;-70
2023/07/04 06:53:04;;;;;;;15.27;2.75;;;;;;;;;;5064595;28;20036;-72
2023/07/04 06:55:31;;;;;;;13.63;2.70;;;;;;;;;;5064186;28;20120;-71
2023/07/04 06:57:57;;;;;;;18.15;3.30;;;;;;;;;;5066714;28;20031;-71
2023/07/04 07:00:23;;;;;;;11.57;2.80;;;;;;;;;;5083241;28;20035;-72
2023/07/04 07:02:52;;;;;;;16.02;3.00;;;;;;;;;;5057004;28;20035;-71
2023/07/04 07:05:19;;;;;;;16.48;2.97;;;;;;;;;;5079974;28;20036;-72
2023/07/04 07:07:47;;;;;;;19.15;3.00;;;;;;;;;;5084546;28;20032;-72
2023/07/04 07:10:14;;;;;;;11.75;2.75;;;;;;;;;;5081711;28;20036;-70
2023/07/04 07:12:40;;;;;;;16.95;3.05;;;;;;;;;;5085793;28;20028;-72
2023/07/04 07:15:06;;;;;;;19.80;4.30;;;;;;;;;;5085703;28;20028;-71
2023/07/04 07:17:33;;;;;;;15.90;3.05;;;;;;;;;;5082352;28;20033;-69
2023/07/04 07:19:59;;;;;;;21.88;3.92;;;;;;;;;;5087966;28;20034;-72
2023/07/04 07:22:25;;;;;;;19.90;3.90;;;;;;;;;;5086144;28;20036;-72
2023/07/04 07:24:51;;;;;;;20.20;4.70;;;;;;;;;;5066844;28;20069;-71
2023/07/04 07:27:18;;;;;;;24.40;4.38;;;;;;;;;;5082853;28;20451;-71
2023/07/04 07:29:47;;;;;;;19.05;4.32;;;;;;;;;;5068363;28;20073;-70
2023/07/04 07:32:13;;;;;;;19.77;4.00;;;;;;;;;;5084018;28;20453;-71
2023/07/04 07:34:40;;;;;;;20.63;4.45;;;;;;;;;;5085218;28;20025;-72
2023/07/04 07:37:08;;;;;;;19.58;4.38;;;;;;;;;;5087026;28;20032;-72
2023/07/04 07:39:34;;;;;;;14.95;4.00;;;;;;;;;;5086939;28;20042;-72
2023/07/04 07:42:00;;;;;;;18.98;4.28;;;;;;;;;;5065424;28;20032;-71
2023/07/04 07:44:26;;;;;;;23.23;4.80;;;;;;;;;;5078285;28;20024;-72
2023/07/04 07:46:52;;;;;;;15.20;3.70;;;;;;;;;;5084868;28;20028;-72
2023/07/04 07:49:18;;;;;;;17.88;3.97;;;;;;;;;;5067852;28;20035;-72
2023/07/04 07:51:45;;;;;;;21.60;4.75;;;;;;;;;;5070667;28;20150;-71
2023/07/04 07:54:13;;;;;;;17.50;3.28;;;;;;;;;;5065357;28;20032;-71
2023/07/04 07:56:41;;;;;;;13.45;3.00;;;;;;;;;;5079865;28;20031;-70
2023/07/04 07:59:08;;;;;;;13.05;2.67;;;;;;;;;;5070047;28;20020;-71
2023/07/04 08:01:34;;;;;;;19.45;3.85;;;;;;;;;;5079131;28;20151;-70
2023/07/04 08:04:01;;;;;;;19.13;3.33;;;;;;;;;;5080555;28;20035;-71
2023/07/04 08:06:29;;;;;;;18.25;3.20;;;;;;;;;;5087373;28;20028;-71
2023/07/04 08:08:56;;;;;;;15.93;3.40;;;;;;;;;;5093032;28;20221;-71
2023/07/04 08:11:22;;;;;;;17.05;3.75;;;;;;;;;;5075237;28;20573;-72
2023/07/04 08:13:49;;;;;;;20.52;3.83;;;;;;;;;;5090775;28;20020;-71
2023/07/04 08:16:17;;;;;;;21.10;3.75;;;;;;;;;;5093350;28;20039;-71
2023/07/04 08:18:43;;;;;;;15.45;3.20;;;;;;;;;;5093307;28;20123;-72
2023/07/04 08:21:09;;;;;;;15.93;3.35;;;;;;;;;;5064801;28;20146;-72
2023/07/04 08:23:35;;;;;;;19.40;4.00;;;;;;;;;;5069310;28;20041;-72
2023/07/04 08:26:02;;;;;;;21.92;4.90;;;;;;;;;;5081106;28;20078;-72
2023/07/04 08:28:28;;;;;;;19.60;3.55;;;;;;;;;;5072598;28;20123;-72
2023/07/04 08:30:54;;;;;;;20.17;3.40;;;;;;;;;;5093336;28;20020;-72
2023/07/04 08:33:20;;;;;;;20.17;3.28;;;;;;;;;;5083959;28;20331;-71
2023/07/04 08:35:59;;;;;;;16.05;3.35;;;;;;;;;;5091644;28;20499;-71
2023/07/04 08:38:25;;;;;;;20.75;4.30;;;;;;;;;;5090278;28;20126;-72
2023/07/04 08:40:52;;;;;;;13.23;3.03;;;;;;;;;;5093287;28;20027;-71
2023/07/04 08:43:41;;;;;;;18.35;3.10;;;;;;;;;;5092245;28;20062;-71
2023/07/04 08:46:09;;;;;;;17.27;4.38;;;;;;;;;;5079708;28;20070;-71
2023/07/04 08:48:36;;;;;;;15.10;3.72;;;;;;;;;;5084697;28;20623;-70
2023/07/04 08:51:03;;;;;;;12.20;2.83;;;;;;;;;;5072518;28;20111;-71
2023/07/04 08:53:30;;;;;;;19.95;2.92;;;;;;;;;;5095791;28;20062;-70
2023/07/04 08:56:28;;;;;;;22.52;3.38;;;;;;;;;;5061250;28;20092;-71
2023/07/04 08:59:04;;;;;;;14.18;3.35;;;;;;;;;;5038408;28;20067;-71
2023/07/04 09:01:36;;;;;;;17.10;2.90;;;;;;;;;;5092206;28;20048;-71
2023/07/04 09:04:09;;;;;;;18.42;3.00;;;;;;;;;;5055879;28;20063;-70
2023/07/04 09:06:43;;;;;;;17.67;3.50;;;;;;;;;;5072175;28;20036;-70
2023/07/04 09:09:09;;;;;;;16.10;3.03;;;;;;;;;;5071753;28;20040;-70
2023/07/04 09:11:36;;;;;;;20.13;3.35;;;;;;;;;;5073006;28;20503;-72
2023/07/04 09:14:06;;;;;;;17.80;3.97;;;;;;;;;;5085514;28;20035;-71
2023/07/04 09:16:44;;;;;;;11.38;2.92;;;;;;;;;;5072092;28;20062;-71
2023/07/04 09:19:12;;;;;;;16.77;3.92;;;;;;;;;;5091843;28;20024;-72
2023/07/04 09:21:38;;;;;;;12.90;3.05;;;;;;;;;;5091898;28;20031;-70
2023/07/04 09:24:05;;;;;;;21.75;3.33;;;;;;;;;;5091332;28;20066;-69
2023/07/04 09:26:44;;;;;;;10.32;2.47;;;;;;;;;;5073058;28;20113;-70
2023/07/04 09:29:11;;;;;;;11.93;3.00;;;;;;;;;;5065675;28;20032;-71
2023/07/04 09:31:39;;;;;;;15.27;3.38;;;;;;;;;;5090868;28;20063;-71
2023/07/04 09:34:10;;;;;;;14.48;2.95;;;;;;;;;;5073505;28;20021;-70
2023/07/04 09:36:37;;;;;;;14.98;3.08;;;;;;;;;;5084709;28;20130;-71
2023/07/04 09:39:04;;;;;;;14.73;3.47;;;;;;;;;;5072787;28;20062;-72
2023/07/04 09:41:32;;;;;;;13.27;2.95;;;;;;;;;;5073276;28;20101;-72
2023/07/04 09:44:12;;;;;;;12.63;2.70;;;;;;;;;;5091695;28;20161;-71
2023/07/04 09:46:38;;;;;;;13.73;3.00;;;;;;;;;;5073010;28;20118;-72
2023/07/04 09:49:23;;;;;;;15.48;3.20;;;;;;;;;;5086306;28;20033;-71
2023/07/04 09:51:59;;;;;;;14.30;2.78;;;;;;;;;;5071459;28;20037;-71
2023/07/04 09:54:25;;;;;;;14.77;3.03;;;;;;;;;;5072186;28;20028;-71
2023/07/04 09:56:51;;;;;;;15.02;3.30;;;;;;;;;;5088301;28;20063;-70
2023/07/04 09:59:17;;;;;;;16.13;2.65;;;;;;;;;;5093428;28;20028;-70
2023/07/04 10:01:51;;;;;;;13.95;2.95;;;;;;;;;;5090817;28;20568;-71
2023/07/04 10:04:29;;;;;;;12.10;2.95;;;;;;;;;;5095250;28;20032;-70
2023/07/04 10:06:56;;;;;;;13.55;2.80;;;;;;;;;;5089327;28;20024;-70
2023/07/04 10:09:23;;;;;;;13.45;3.20;;;;;;;;;;5053160;28;20124;-71
2023/07/04 10:11:50;;;;;;;19.10;3.75;;;;;;;;;;5071629;28;20029;-72
2023/07/04 10:14:16;;;;;;;18.13;3.65;;;;;;;;;;5045303;28;20397;-71
2023/07/04 10:16:53;;;;;;;17.48;3.42;;;;;;;;;;5073086;28;20035;-71
2023/07/04 10:19:20;;;;;;;21.48;3.50;;;;;;;;;;5086213;28;20032;-71
2023/07/04 10:21:54;;;;;;;16.08;3.38;;;;;;;;;;5084503;28;20028;-71
2023/07/04 10:24:24;;;;;;;16.50;3.67;;;;;;;;;;5076209;28;20056;-71
2023/07/04 10:27:00;;;;;;;20.17;3.65;;;;;;;;;;5085926;28;20061;-72
2023/07/04 10:29:52;;;;;;;13.50;3.40;;;;;;;;;;5082660;28;20122;-72
2023/07/04 10:32:18;;;;;;;15.45;3.45;;;;;;;;;;5061466;28;20485;-70
2023/07/04 10:34:47;;;;;;;14.18;3.03;;;;;;;;;;5088007;28;20503;-71
2023/07/04 10:37:20;;;;;;;17.33;3.20;;;;;;;;;;5084216;28;20032;-70
2023/07/04 10:39:46;;;;;;;13.50;3.25;;;;;;;;;;5089376;28;20171;-71
2023/07/04 10:42:32;;;;;;;15.07;2.67;;;;;;;;;;5082807;28;20114;-71
2023/07/04 10:44:59;;;;;;;15.38;3.45;;;;;;;;;;5070973;28;20496;-71
2023/07/04 10:47:28;;;;;;;17.52;3.67;;;;;;;;;;5084389;28;20051;-71
2023/07/04 10:49:57;;;;;;;15.27;3.00;;;;;;;;;;5078608;28;20077;-71
2023/07/04 10:52:26;;;;;;;16.00;3.13;;;;;;;;;;5088413;28;20038;-72
2023/07/04 10:54:53;;;;;;;14.02;2.85;;;;;;;;;;5086990;28;20052;-71
2023/07/04 10:57:22;;;;;;;9.27;2.50;;;;;;;;;;5070846;28;20036;-71
2023/07/04 10:59:49;;;;;;;15.02;2.90;;;;;;;;;;5088526;28;20176;-70
2023/07/04 11:02:25;;;;;;;16.98;2.80;;;;;;;;;;5063247;28;20097;-71
2023/07/04 11:04:54;;;;;;;14.43;2.80;;;;;;;;;;5065757;28;20036;-72
2023/07/04 11:07:22;;;;;;;12.48;2.78;;;;;;;;;;5065793;28;20057;-71
2023/07/04 11:09:51;;;;;;;12.10;3.03;;;;;;;;;;5064370;28;20032;-71
2023/07/04 11:12:18;;;;;;;8.60;3.00;;;;;;;;;;5066520;28;20481;-72
2023/07/04 11:14:46;;;;;;;20.23;4.22;;;;;;;;;;5064886;28;20048;-72
2023/07/04 11:17:14;;;;;;;12.45;2.83;;;;;;;;;;5066699;28;20075;-70
2023/07/04 11:19:59;;;;;;;12.20;2.50;;;;;;;;;;5067005;28;20028;-71
2023/07/04 11:22:44;;;;;;;13.80;3.08;;;;;;;;;;5068653;28;20017;-76
2023/07/04 11:25:40;;;;;;;14.20;3.13;;;;;;;;;;5068652;28;20108;-71
2023/07/04 11:28:14;;;;;;;14.57;3.13;;;;;;;;;;5051172;28;20097;-72
2023/07/04 11:30:45;;;;;;;9.77;2.78;;;;;;;;;;5059946;28;20033;-70
2023/07/04 11:33:31;;;;;;;14.68;3.00;;;;;;;;;;5065659;28;20051;-71
2023/07/04 11:35:58;;;;;;;11.82;2.63;;;;;;;;;;5065629;28;20017;-71
2023/07/04 11:38:24;;;;;;;9.27;2.88;;;;;;;;;;5065642;28;20040;-71
2023/07/04 11:40:55;;;;;;;12.77;3.25;;;;;;;;;;5070306;28;20040;-71
2023/07/04 11:43:27;;;;;;;9.07;2.53;;;;;;;;;;5066003;28;20036;-71
2023/07/04 11:45:55;;;;;;;8.25;2.33;;;;;;;;;;5061418;28;20040;-70
2023/07/04 11:48:22;;;;;;;19.02;3.20;;;;;;;;;;5070035;28;20390;-71
2023/07/04 11:50:50;;;;;;;17.38;2.75;;;;;;;;;;5072370;28;20036;-72
2023/07/04 11:53:16;;;;;;;12.45;2.83;;;;;;;;;;5073800;28;20046;-71
2023/07/04 11:55:42;;;;;;;17.50;2.97;;;;;;;;;;5069611;28;20036;-72
2023/07/04 11:58:08;;;;;;;12.95;2.85;;;;;;;;;;5071303;28;20150;-71
2023/07/04 12:00:40;;;;;;;9.00;2.50;;;;;;;;;;5075453;28;20063;-71
2023/07/04 12:03:21;;;;;;;8.93;2.05;;;;;;;;;;5092895;28;20063;-71
2023/07/04 12:05:55;;;;;;;13.13;2.80;;;;;;;;;;5086152;28;20021;-71
2023/07/04 12:08:33;;;;;;;9.25;2.53;;;;;;;;;;5072945;28;20047;-72
2023/07/04 12:11:00;;;;;;;13.88;2.78;;;;;;;;;;5074470;28;20461;-72
2023/07/04 12:13:29;;;;;;;10.77;2.55;;;;;;;;;;5073257;28;20482;-71
2023/07/04 12:15:56;;;;;;;12.38;2.70;;;;;;;;;;5089454;28;20020;-72
2023/07/04 12:18:42;;;;;;;14.02;2.70;;;;;;;;;;5083824;28;20051;-72
2023/07/04 12:21:08;;;;;;;10.15;2.75;;;;;;;;;;5079452;28;20107;-71
2023/07/04 12:23:36;;;;;;;8.35;2.20;;;;;;;;;;5088808;28;20024;-72
2023/07/04 12:26:03;;;;;;;8.57;2.33;;;;;;;;;;5083338;28;20052;-71
2023/07/04 12:28:30;;;;;;;11.63;2.65;;;;;;;;;;5064049;28;20039;-72
2023/07/04 12:31:04;;;;;;;9.95;2.40;;;;;;;;;;5082850;28;20436;-71
2023/07/04 12:33:39;;;;;;;10.98;2.97;;;;;;;;;;5077113;28;20038;-71
2023/07/04 12:36:09;;;;;;;13.45;2.63;;;;;;;;;;5084431;28;20104;-71
2023/07/04 12:38:40;;;;;;;12.40;2.72;;;;;;;;;;5092319;28;20118;-72
2023/07/04 12:41:07;;;;;;;11.13;2.67;;;;;;;;;;5073507;28;20028;-71
2023/07/04 12:43:33;;;;;;;9.07;2.42;;;;;;;;;;5091280;28;20034;-72
2023/07/04 12:46:13;;;;;;;10.38;2.97;;;;;;;;;;5086272;28;20090;-71
2023/07/04 12:48:39;;;;;;;7.13;2.40;;;;;;;;;;5087241;28;20054;-72
2023/07/04 12:51:08;;;;;;;9.68;3.10;;;;;;;;;;5063893;28;20098;-72
2023/07/04 12:53:35;;;;;;;9.07;2.70;;;;;;;;;;5079205;28;20402;-71
2023/07/04 12:56:01;;;;;;;9.18;2.47;;;;;;;;;;5079441;28;20397;-71
2023/07/04 12:58:28;;;;;;;11.82;2.60;;;;;;;;;;5073891;28;20024;-70
2023/07/04 13:00:57;;;;;;;7.40;2.33;;;;;;;;;;5083443;28;20044;-70
2023/07/04 13:03:26;;;;;;;6.15;1.95;;;;;;;;;;5071755;28;20032;-70
2023/07/04 13:05:53;;;;;;;7.38;2.50;;;;;;;;;;5081684;28;20405;-71
2023/07/04 13:08:30;;;;;;;6.65;2.25;;;;;;;;;;5091082;28;20090;-70
2023/07/04 13:10:58;;;;;;;7.60;2.58;;;;;;;;;;5065174;28;20570;-71
2023/07/04 13:13:30;;;;;;;8.10;2.50;;;;;;;;;;5081278;28;20032;-72
2023/07/04 13:16:14;;;;;;;11.88;2.30;;;;;;;;;;5088993;28;20024;-71
2023/07/04 13:18:42;;;;;;;9.38;2.42;;;;;;;;;;5074811;28;20021;-72
2023/07/04 13:21:11;;;;;;;10.70;2.53;;;;;;;;;;5077581;28;20090;-71
2023/07/04 13:23:40;;;;;;;10.98;2.40;;;;;;;;;;5077433;28;20032;-72
2023/07/04 13:26:17;;;;;;;7.50;2.22;;;;;;;;;;5085066;28;20056;-72
2023/07/04 13:28:46;;;;;;;6.47;2.40;;;;;;;;;;5079552;28;20348;-71
2023/07/04 13:31:28;;;;;;;8.77;2.78;;;;;;;;;;5069890;28;20585;-70
2023/07/04 13:33:56;;;;;;;42.78;3.78;;;;;;;;;;5070566;28;20021;-70
2023/07/04 13:36:42;;;;;;;10.38;2.70;;;;;;;;;;5086141;28;20032;-71
2023/07/04 13:39:13;;;;;;;8.45;2.15;;;;;;;;;;5087458;28;20036;-72
2023/07/04 13:41:40;;;;;;;8.85;2.25;;;;;;;;;;5074425;28;20081;-71
2023/07/04 13:44:07;;;;;;;19.63;3.55;;;;;;;;;;5070261;28;20151;-70
2023/07/04 13:46:33;;;;;;;5.50;2.22;;;;;;;;;;5084997;28;20032;-70
2023/07/04 13:48:59;;;;;;;7.30;2.30;;;;;;;;;;5072616;28;20032;-71
2023/07/04 13:51:26;;;;;;;6.90;2.33;;;;;;;;;;5058329;28;20077;-71
2023/07/04 13:53:53;;;;;;;6.05;2.13;;;;;;;;;;5079162;28;20020;-71
2023/07/04 13:56:19;;;;;;;7.30;2.42;;;;;;;;;;5079195;28;20024;-71
2023/07/04 13:58:45;;;;;;;10.45;2.60;;;;;;;;;;5090724;28;20035;-72
2023/07/04 14:01:12;;;;;;;4.88;2.35;;;;;;;;;;5066142;28;20048;-70
2023/07/04 14:03:38;;;;;;;7.60;2.55;;;;;;;;;;5071701;28;20024;-71
2023/07/04 14:06:05;;;;;;;9.13;2.92;;;;;;;;;;5086023;28;20040;-71
2023/07/04 14:08:32;;;;;;;7.35;2.85;;;;;;;;;;5052044;28;20179;-71
2023/07/04 14:11:09;;;;;;;7.00;2.42;;;;;;;;;;5067626;28;20024;-72
2023/07/04 14:13:36;;;;;;;9.88;2.33;;;;;;;;;;5085032;28;20088;-71
2023/07/04 14:16:03;;;;;;;11.07;2.33;;;;;;;;;;5083974;28;20473;-72
2023/07/04 14:18:29;;;;;;;11.13;3.03;;;;;;;;;;5073834;28;20072;-71
2023/07/04 14:20:56;;;;;;;8.75;2.30;;;;;;;;;;5080157;28;20028;-71
2023/07/04 14:23:22;;;;;;;5.97;2.22;;;;;;;;;;5063552;28;20024;-72
2023/07/04 14:25:50;;;;;;;8.65;2.40;;;;;;;;;;5064216;28;20027;-72
2023/07/04 14:28:16;;;;;;;8.15;2.90;;;;;;;;;;5084606;28;20202;-70
2023/07/04 14:30:43;;;;;;;5.68;2.50;;;;;;;;;;5078288;28;20028;-70
2023/07/04 14:33:10;;;;;;;7.15;2.10;;;;;;;;;;5083646;28;20028;-71
2023/07/04 14:35:39;;;;;;;9.85;2.40;;;;;;;;;;5055710;28;20016;-70
2023/07/04 14:38:05;;;;;;;9.57;2.53;;;;;;;;;;5069380;28;20024;-71